Time;durP1;ratioP1;P1;durP2;ratioP2;P2;SDS_P1;SDS_P2;PMS_P1;PMS_P2;Temp;Humidity;BMP_temperature;BMP_pressure;BME280_temperature;BME280_humidity;BME280_pressure;Samples;Min_cycle;Max_cycle;Signal;HPM_P1;HPM_P2
2023/12/15 00:04:04;;;;;;;14.55;12.35;;;;;;;;;;10025582;28;20512;-75
2023/12/15 00:08:56;;;;;;;14.85;11.27;;;;;;;;;;10025891;28;20046;-75
2023/12/15 00:13:48;;;;;;;13.38;9.93;;;;;;;;;;10025549;28;20046;-77
2023/12/15 00:18:39;;;;;;;14.23;10.45;;;;;;;;;;10025592;28;20049;-77
2023/12/15 00:23:33;;;;;;;17.15;11.50;;;;;;;;;;10025648;28;20060;-77
2023/12/15 00:28:25;;;;;;;13.95;10.60;;;;;;;;;;10025559;28;20136;-77
2023/12/15 00:33:16;;;;;;;14.23;11.68;;;;;;;;;;10025828;28;20050;-77
2023/12/15 00:38:08;;;;;;;15.18;12.07;;;;;;;;;;10025510;28;20416;-77
2023/12/15 00:43:00;;;;;;;15.05;10.95;;;;;;;;;;10024592;28;20049;-77
2023/12/15 00:47:52;;;;;;;13.43;10.40;;;;;;;;;;10025671;28;20049;-77
2023/12/15 00:52:44;;;;;;;14.57;11.02;;;;;;;;;;10025072;28;20050;-76
2023/12/15 00:57:36;;;;;;;16.38;10.90;;;;;;;;;;10024599;28;20500;-77
2023/12/15 01:02:28;;;;;;;12.13;10.20;;;;;;;;;;10024946;28;20384;-77
2023/12/15 01:07:20;;;;;;;13.15;11.05;;;;;;;;;;10025323;28;20388;-77
2023/12/15 01:12:12;;;;;;;11.90;10.10;;;;;;;;;;10024842;28;20077;-77
2023/12/15 01:17:03;;;;;;;10.48;8.20;;;;;;;;;;10024801;28;20084;-76
2023/12/15 01:21:55;;;;;;;8.90;7.35;;;;;;;;;;10030314;28;20048;-77
2023/12/15 01:26:47;;;;;;;9.13;8.15;;;;;;;;;;10031070;28;20096;-76
2023/12/15 01:31:39;;;;;;;10.30;8.50;;;;;;;;;;10031732;28;20420;-77
2023/12/15 01:36:31;;;;;;;11.23;9.52;;;;;;;;;;10031479;28;20108;-76
2023/12/15 01:41:23;;;;;;;11.02;9.50;;;;;;;;;;10031662;28;20078;-76
2023/12/15 01:46:14;;;;;;;16.90;12.25;;;;;;;;;;10030828;28;20061;-78
2023/12/15 01:51:06;;;;;;;12.30;10.52;;;;;;;;;;10031214;28;20385;-77
2023/12/15 01:55:58;;;;;;;11.43;9.15;;;;;;;;;;10031007;28;20343;-76
2023/12/15 02:00:50;;;;;;;13.00;8.27;;;;;;;;;;10030147;28;20100;-76
2023/12/15 02:05:45;;;;;;;12.10;9.75;;;;;;;;;;10030511;28;20129;-77
2023/12/15 02:10:38;;;;;;;14.30;11.13;;;;;;;;;;10030171;28;20096;-77
2023/12/15 02:15:30;;;;;;;16.13;11.57;;;;;;;;;;10029992;28;20046;-77
2023/12/15 02:20:22;;;;;;;14.32;11.07;;;;;;;;;;10029828;28;20527;-77
2023/12/15 02:25:14;;;;;;;14.82;11.32;;;;;;;;;;10029273;28;20062;-76
2023/12/15 02:30:06;;;;;;;16.40;13.95;;;;;;;;;;10029089;28;20050;-77
2023/12/15 02:34:58;;;;;;;17.90;14.20;;;;;;;;;;10029112;28;20046;-77
2023/12/15 02:39:50;;;;;;;21.15;17.30;;;;;;;;;;10029106;28;20362;-77
2023/12/15 02:44:45;;;;;;;21.42;14.75;;;;;;;;;;10028142;28;20049;-76
2023/12/15 02:49:38;;;;;;;17.50;13.43;;;;;;;;;;10029143;28;20050;-76
2023/12/15 02:54:30;;;;;;;14.20;11.65;;;;;;;;;;10027646;28;20046;-76
2023/12/15 02:59:22;;;;;;;14.52;9.73;;;;;;;;;;10028153;28;20046;-75
2023/12/15 03:04:14;;;;;;;10.63;7.78;;;;;;;;;;10028772;28;20373;-77
2023/12/15 03:09:06;;;;;;;11.52;8.43;;;;;;;;;;10027419;28;20088;-77
2023/12/15 03:13:58;;;;;;;9.10;6.75;;;;;;;;;;10028225;28;20038;-77
2023/12/15 03:18:50;;;;;;;8.50;6.82;;;;;;;;;;10028041;28;20088;-77
2023/12/15 03:23:42;;;;;;;8.40;7.22;;;;;;;;;;10027396;28;20077;-77
2023/12/15 03:28:34;;;;;;;9.45;8.43;;;;;;;;;;10026691;28;20100;-76
2023/12/15 03:33:25;;;;;;;9.05;7.80;;;;;;;;;;10027381;28;20050;-75
2023/12/15 03:38:18;;;;;;;8.82;7.85;;;;;;;;;;10026750;28;20500;-75
2023/12/15 03:43:10;;;;;;;9.30;7.22;;;;;;;;;;10025465;28;20481;-75
2023/12/15 03:48:02;;;;;;;9.05;7.03;;;;;;;;;;10026886;28;20052;-76
2023/12/15 03:52:54;;;;;;;9.70;7.63;;;;;;;;;;10026239;28;20045;-76
2023/12/15 03:57:46;;;;;;;10.40;8.07;;;;;;;;;;10026596;28;20073;-77
2023/12/15 04:02:38;;;;;;;13.85;8.60;;;;;;;;;;10025715;28;20046;-77
2023/12/15 04:07:30;;;;;;;11.20;9.25;;;;;;;;;;10026138;28;20050;-77
2023/12/15 04:12:22;;;;;;;14.00;9.07;;;;;;;;;;10025965;28;20046;-77
2023/12/15 04:17:14;;;;;;;10.90;9.05;;;;;;;;;;10025526;28;20058;-77
2023/12/15 04:22:06;;;;;;;14.52;12.40;;;;;;;;;;10025834;28;20049;-76
2023/12/15 04:26:57;;;;;;;17.65;10.70;;;;;;;;;;10025540;28;20054;-76
2023/12/15 04:31:49;;;;;;;15.88;12.20;;;;;;;;;;10025400;28;20050;-76
2023/12/15 04:36:41;;;;;;;15.98;11.38;;;;;;;;;;10025624;28;20369;-76
2023/12/15 04:41:33;;;;;;;19.60;13.95;;;;;;;;;;10025410;28;20054;-76
2023/12/15 04:46:29;;;;;;;18.13;13.48;;;;;;;;;;10025924;28;20061;-77
2023/12/15 04:51:22;;;;;;;26.75;20.05;;;;;;;;;;10025473;28;20132;-76
2023/12/15 04:56:14;;;;;;;25.88;18.02;;;;;;;;;;10031642;28;20078;-77
2023/12/15 05:01:13;;;;;;;17.85;15.23;;;;;;;;;;10032709;28;20042;-76
2023/12/15 05:06:05;;;;;;;44.08;34.03;;;;;;;;;;10032316;28;20049;-76
2023/12/15 05:10:57;;;;;;;32.15;21.60;;;;;;;;;;10031766;28;20492;-77
2023/12/15 05:15:49;;;;;;;40.88;27.83;;;;;;;;;;10032654;28;20469;-77
2023/12/15 05:20:41;;;;;;;108.93;80.80;;;;;;;;;;10032009;28;20132;-77
2023/12/15 05:25:33;;;;;;;32.90;24.83;;;;;;;;;;10032428;28;20053;-77
2023/12/15 05:30:25;;;;;;;36.97;28.85;;;;;;;;;;10032000;28;20069;-77
2023/12/15 05:35:17;;;;;;;33.05;23.48;;;;;;;;;;10031778;28;20535;-76
2023/12/15 05:40:11;;;;;;;89.15;65.80;;;;;;;;;;10030920;28;20056;-76
2023/12/15 05:45:04;;;;;;;29.13;23.10;;;;;;;;;;10031078;28;20533;-76
2023/12/15 05:49:56;;;;;;;24.90;18.30;;;;;;;;;;10031096;28;20042;-76
2023/12/15 05:54:48;;;;;;;27.08;20.88;;;;;;;;;;10031051;28;20046;-76
2023/12/15 05:59:40;;;;;;;25.90;19.95;;;;;;;;;;10030888;28;20468;-77
2023/12/15 06:04:32;;;;;;;13.07;11.65;;;;;;;;;;10029532;28;20045;-76
2023/12/15 06:09:25;;;;;;;17.75;14.05;;;;;;;;;;10030314;28;20053;-76
2023/12/15 06:14:18;;;;;;;19.00;15.68;;;;;;;;;;10029512;28;20049;-76
2023/12/15 06:19:09;;;;;;;14.80;11.75;;;;;;;;;;10030248;28;20388;-77
2023/12/15 06:24:02;;;;;;;25.88;17.73;;;;;;;;;;10028845;28;20085;-77
2023/12/15 06:28:53;;;;;;;31.95;20.27;;;;;;;;;;10028841;28;20046;-76
2023/12/15 06:33:46;;;;;;;17.40;13.18;;;;;;;;;;9992961;28;20093;-76
2023/12/15 06:38:44;;;;;;;24.00;16.58;;;;;;;;;;9989577;28;20057;-75
2023/12/15 06:43:43;;;;;;;17.50;11.97;;;;;;;;;;9988820;28;20058;-75
2023/12/15 06:48:35;;;;;;;20.07;13.17;;;;;;;;;;9989200;28;20046;-76
2023/12/15 06:53:27;;;;;;;12.93;10.18;;;;;;;;;;9989241;28;20767;-75
2023/12/15 06:58:19;;;;;;;25.77;16.30;;;;;;;;;;9989315;28;20426;-76
2023/12/15 07:03:11;;;;;;;24.88;18.15;;;;;;;;;;9988762;28;20052;-76
2023/12/15 07:08:03;;;;;;;32.63;23.02;;;;;;;;;;9989842;28;20370;-76
2023/12/15 07:12:56;;;;;;;29.77;19.50;;;;;;;;;;9988218;28;20058;-75
2023/12/15 07:17:48;;;;;;;13.93;11.40;;;;;;;;;;9988971;28;20532;-75
2023/12/15 07:22:40;;;;;;;14.40;11.57;;;;;;;;;;9987831;28;20112;-75
2023/12/15 07:27:32;;;;;;;20.08;14.88;;;;;;;;;;9988157;28;20561;-76
2023/12/15 07:32:24;;;;;;;21.67;13.63;;;;;;;;;;9988233;28;20046;-75
2023/12/15 07:37:16;;;;;;;18.92;15.52;;;;;;;;;;9987706;28;20105;-75
2023/12/15 07:42:08;;;;;;;15.73;13.82;;;;;;;;;;9987426;28;20426;-76
2023/12/15 07:47:00;;;;;;;18.50;13.32;;;;;;;;;;9987403;28;20058;-75
2023/12/15 07:51:52;;;;;;;19.15;12.90;;;;;;;;;;9987628;28;20047;-77
2023/12/15 07:56:44;;;;;;;21.42;15.00;;;;;;;;;;9987166;28;20046;-75
2023/12/15 08:01:36;;;;;;;30.27;22.52;;;;;;;;;;9986819;28;20381;-75
2023/12/15 08:06:28;;;;;;;24.40;19.00;;;;;;;;;;9987397;28;20149;-77
2023/12/15 08:11:22;;;;;;;23.73;17.15;;;;;;;;;;9986878;28;20050;-73
2023/12/15 08:16:14;;;;;;;19.45;15.75;;;;;;;;;;9986889;28;20375;-74
2023/12/15 08:21:06;;;;;;;19.08;15.30;;;;;;;;;;9986751;28;20046;-75
2023/12/15 08:25:58;;;;;;;21.40;18.90;;;;;;;;;;9986518;28;20057;-74
2023/12/15 08:30:50;;;;;;;18.17;14.65;;;;;;;;;;9985955;28;20057;-75
2023/12/15 08:35:42;;;;;;;17.35;12.60;;;;;;;;;;9986389;28;20409;-73
2023/12/15 08:40:34;;;;;;;19.45;13.98;;;;;;;;;;9985765;28;20061;-78
2023/12/15 08:45:26;;;;;;;18.55;12.82;;;;;;;;;;9986231;28;20454;-75
2023/12/15 08:50:18;;;;;;;32.30;18.20;;;;;;;;;;9985690;28;20057;-75
2023/12/15 08:55:10;;;;;;;21.55;16.90;;;;;;;;;;9985500;28;20070;-75
2023/12/15 09:00:04;;;;;;;22.52;19.77;;;;;;;;;;9986250;28;20073;-76
2023/12/15 09:05:00;;;;;;;26.88;20.00;;;;;;;;;;9985520;28;20047;-76
2023/12/15 09:10:02;;;;;;;24.35;19.40;;;;;;;;;;9985805;28;20042;-75
2023/12/15 09:14:56;;;;;;;23.92;19.17;;;;;;;;;;9985586;28;20070;-76
2023/12/15 09:19:48;;;;;;;27.95;18.00;;;;;;;;;;9985117;28;20117;-75
2023/12/15 09:24:39;;;;;;;24.63;19.50;;;;;;;;;;9999426;28;20157;-75
2023/12/15 09:29:34;;;;;;;23.52;18.95;;;;;;;;;;9985730;28;20074;-75
2023/12/15 09:34:27;;;;;;;25.10;20.08;;;;;;;;;;9985612;28;20047;-76
2023/12/15 09:39:20;;;;;;;30.98;18.67;;;;;;;;;;9984879;28;20130;-76
2023/12/15 09:44:13;;;;;;;21.88;18.30;;;;;;;;;;9991893;28;20058;-75
2023/12/15 09:49:05;;;;;;;21.15;16.75;;;;;;;;;;9992196;28;20045;-75
2023/12/15 09:53:57;;;;;;;18.55;14.50;;;;;;;;;;10006433;28;20385;-75
2023/12/15 09:58:49;;;;;;;20.52;14.90;;;;;;;;;;9992162;28;20070;-77
2023/12/15 10:03:40;;;;;;;17.67;14.65;;;;;;;;;;9991431;28;20042;-76
2023/12/15 10:08:41;;;;;;;18.60;12.73;;;;;;;;;;9991322;28;20100;-76
2023/12/15 10:13:53;;;;;;;17.70;14.20;;;;;;;;;;9990950;28;20056;-76
2023/12/15 10:18:45;;;;;;;16.52;12.63;;;;;;;;;;9990768;28;20157;-75
2023/12/15 10:23:37;;;;;;;17.70;13.82;;;;;;;;;;9990742;28;20190;-75
2023/12/15 10:28:35;;;;;;;16.73;13.07;;;;;;;;;;9990985;28;20430;-76
2023/12/15 10:33:29;;;;;;;17.98;13.20;;;;;;;;;;9990484;28;20050;-74
2023/12/15 10:38:22;;;;;;;17.27;14.10;;;;;;;;;;9990004;28;20436;-76
2023/12/15 10:43:14;;;;;;;17.58;13.45;;;;;;;;;;9990059;28;20524;-76
2023/12/15 10:48:07;;;;;;;19.00;14.10;;;;;;;;;;9990135;28;20112;-76
2023/12/15 10:53:00;;;;;;;19.90;13.40;;;;;;;;;;9988705;28;20042;-76
2023/12/15 10:57:52;;;;;;;19.67;13.20;;;;;;;;;;10004713;28;20058;-76
2023/12/15 11:02:48;;;;;;;18.80;14.55;;;;;;;;;;9989060;28;20073;-75
2023/12/15 11:07:40;;;;;;;19.17;11.93;;;;;;;;;;10003857;28;20137;-76
2023/12/15 11:12:39;;;;;;;17.70;14.45;;;;;;;;;;9988507;28;20145;-75
2023/12/15 11:17:33;;;;;;;19.63;14.45;;;;;;;;;;9988613;28;20458;-76
2023/12/15 11:22:26;;;;;;;17.42;13.75;;;;;;;;;;9988445;28;20049;-75
2023/12/15 11:27:18;;;;;;;17.35;12.88;;;;;;;;;;9987960;28;20466;-76
2023/12/15 11:32:29;;;;;;;16.02;13.23;;;;;;;;;;9988463;28;20050;-76
2023/12/15 11:37:21;;;;;;;18.70;13.00;;;;;;;;;;9987514;28;20054;-75
2023/12/15 11:42:14;;;;;;;19.70;14.88;;;;;;;;;;10002105;28;20046;-76
2023/12/15 11:47:06;;;;;;;15.90;12.50;;;;;;;;;;9987835;28;20050;-75
2023/12/15 11:51:58;;;;;;;16.05;13.65;;;;;;;;;;9986746;28;20133;-76
2023/12/15 11:56:50;;;;;;;17.58;13.88;;;;;;;;;;9987354;28;20050;-75
2023/12/15 12:01:42;;;;;;;22.35;14.35;;;;;;;;;;9987829;28;20054;-77
2023/12/15 12:06:34;;;;;;;16.30;13.13;;;;;;;;;;9985460;28;20092;-77
2023/12/15 12:11:26;;;;;;;17.75;13.75;;;;;;;;;;10002408;28;20470;-78
2023/12/15 12:16:18;;;;;;;17.17;13.85;;;;;;;;;;10001980;28;20401;-75
2023/12/15 12:21:10;;;;;;;17.30;13.93;;;;;;;;;;10002095;28;20053;-78
2023/12/15 12:26:02;;;;;;;14.60;12.40;;;;;;;;;;9986596;28;20058;-77
2023/12/15 12:30:54;;;;;;;17.38;13.38;;;;;;;;;;9986220;28;20046;-77
2023/12/15 12:35:46;;;;;;;20.23;14.13;;;;;;;;;;9986535;28;20108;-77
2023/12/15 12:40:38;;;;;;;15.63;12.20;;;;;;;;;;9985827;28;20054;-77
2023/12/15 12:45:31;;;;;;;16.23;12.85;;;;;;;;;;9986736;28;20057;-77
2023/12/15 12:50:23;;;;;;;18.73;12.95;;;;;;;;;;9986172;28;20485;-77
2023/12/15 12:55:16;;;;;;;17.30;13.15;;;;;;;;;;10001576;28;20474;-78
2023/12/15 13:00:08;;;;;;;16.75;13.55;;;;;;;;;;9986418;28;20053;-78
2023/12/15 13:05:00;;;;;;;17.70;12.45;;;;;;;;;;9984706;28;20058;-77
2023/12/15 13:09:54;;;;;;;15.60;11.75;;;;;;;;;;9985812;28;20405;-78
2023/12/15 13:14:46;;;;;;;19.67;15.32;;;;;;;;;;9988242;28;20161;-78
2023/12/15 13:19:39;;;;;;;21.60;13.50;;;;;;;;;;9992849;28;20465;-75
2023/12/15 13:24:31;;;;;;;15.70;12.80;;;;;;;;;;9992641;28;20050;-78
2023/12/15 13:29:28;;;;;;;20.98;14.65;;;;;;;;;;9992656;28;20072;-75
2023/12/15 13:34:28;;;;;;;;;;;;;;;;;;9993201;28;20384;-77
2023/12/15 13:39:20;;;;;;;17.02;12.15;;;;;;;;;;9991987;28;20859;-77
2023/12/15 13:44:12;;;;;;;15.80;12.45;;;;;;;;;;10006912;28;20046;-78
2023/12/15 13:49:05;;;;;;;16.30;13.13;;;;;;;;;;9992383;28;20133;-77
2023/12/15 13:53:58;;;;;;;19.35;13.82;;;;;;;;;;9991546;28;20042;-77
2023/12/15 13:58:50;;;;;;;16.05;14.10;;;;;;;;;;9991412;28;20073;-77
2023/12/15 14:03:43;;;;;;;18.75;14.50;;;;;;;;;;9991460;28;20050;-77
2023/12/15 14:08:35;;;;;;;16.48;13.88;;;;;;;;;;9990653;28;20457;-74
2023/12/15 14:13:27;;;;;;;17.02;15.15;;;;;;;;;;9990603;28;20070;-77
2023/12/15 14:18:19;;;;;;;21.40;15.43;;;;;;;;;;9990392;28;20384;-75
2023/12/15 14:23:12;;;;;;;16.35;13.43;;;;;;;;;;9990814;28;20046;-75
2023/12/15 14:28:04;;;;;;;19.33;16.00;;;;;;;;;;10004388;28;20133;-78
2023/12/15 14:32:58;;;;;;;17.70;13.80;;;;;;;;;;10005547;28;20089;-77
2023/12/15 14:37:50;;;;;;;16.15;14.00;;;;;;;;;;9990337;28;20074;-78
2023/12/15 14:42:43;;;;;;;19.13;16.98;;;;;;;;;;9990034;28;20113;-77
2023/12/15 14:47:34;;;;;;;17.98;15.40;;;;;;;;;;9990394;28;20055;-77
2023/12/15 14:52:27;;;;;;;28.50;23.70;;;;;;;;;;10005268;28;20474;-78
2023/12/15 14:57:20;;;;;;;26.83;23.38;;;;;;;;;;10003519;28;20048;-76
2023/12/15 15:02:12;;;;;;;30.20;22.90;;;;;;;;;;10022931;28;20060;-77
2023/12/15 15:07:04;;;;;;;28.23;21.08;;;;;;;;;;10027989;28;20042;-77
2023/12/15 15:11:56;;;;;;;22.10;18.92;;;;;;;;;;10028304;28;20053;-76
2023/12/15 15:16:48;;;;;;;24.52;21.92;;;;;;;;;;10021732;28;20042;-77
2023/12/15 15:21:40;;;;;;;37.33;32.40;;;;;;;;;;10021398;28;20476;-77
2023/12/15 15:26:32;;;;;;;27.13;22.08;;;;;;;;;;9998534;28;20132;-78
2023/12/15 15:31:24;;;;;;;27.15;19.92;;;;;;;;;;10016655;28;20050;-79
2023/12/15 15:36:17;;;;;;;26.92;23.85;;;;;;;;;;10002067;28;20041;-78
2023/12/15 15:41:10;;;;;;;28.95;25.98;;;;;;;;;;10005691;28;20050;-79
2023/12/15 15:46:03;;;;;;;35.30;26.75;;;;;;;;;;10006847;28;20084;-78
2023/12/15 15:50:55;;;;;;;29.83;23.80;;;;;;;;;;10005127;28;20100;-78
2023/12/15 15:55:48;;;;;;;37.35;25.83;;;;;;;;;;10024029;28;20144;-77
2023/12/15 16:00:41;;;;;;;44.90;32.22;;;;;;;;;;10025323;28;20776;-77
2023/12/15 16:05:34;;;;;;;21.30;18.63;;;;;;;;;;10025402;28;20138;-77
2023/12/15 16:10:26;;;;;;;27.08;18.90;;;;;;;;;;10025029;28;20350;-77
2023/12/15 16:15:18;;;;;;;29.23;19.33;;;;;;;;;;10025400;28;20535;-77
2023/12/15 16:20:11;;;;;;;50.63;40.78;;;;;;;;;;10032808;28;20388;-77
2023/12/15 16:25:03;;;;;;;62.22;49.25;;;;;;;;;;10026275;28;20042;-77
2023/12/15 16:29:55;;;;;;;23.60;20.75;;;;;;;;;;10018231;28;20054;-75
2023/12/15 16:34:48;;;;;;;37.05;25.95;;;;;;;;;;10023307;28;20054;-78
2023/12/15 16:39:41;;;;;;;20.15;17.42;;;;;;;;;;10024078;28;20050;-78
2023/12/15 16:44:33;;;;;;;19.25;16.65;;;;;;;;;;10013732;28;20477;-77
2023/12/15 16:49:25;;;;;;;24.77;19.48;;;;;;;;;;10016813;28;20045;-76
2023/12/15 16:54:17;;;;;;;26.20;19.67;;;;;;;;;;10019784;28;20390;-77
2023/12/15 16:59:09;;;;;;;28.42;20.08;;;;;;;;;;10023641;28;20465;-76
2023/12/15 17:04:00;;;;;;;21.55;15.82;;;;;;;;;;10030972;28;20042;-77
2023/12/15 17:08:52;;;;;;;19.50;15.60;;;;;;;;;;10019235;28;20160;-79
2023/12/15 17:13:44;;;;;;;34.80;25.23;;;;;;;;;;10015692;28;20507;-76
2023/12/15 17:18:36;;;;;;;25.58;19.17;;;;;;;;;;10007785;28;20128;-76
2023/12/15 17:23:28;;;;;;;33.58;17.63;;;;;;;;;;10004949;28;20033;-78
2023/12/15 17:28:20;;;;;;;23.02;16.35;;;;;;;;;;10009926;28;20088;-76
2023/12/15 17:33:12;;;;;;;18.95;15.20;;;;;;;;;;10005400;28;20054;-75
2023/12/15 17:38:04;;;;;;;19.23;15.07;;;;;;;;;;9996843;28;20047;-75
2023/12/15 17:42:56;;;;;;;26.80;17.98;;;;;;;;;;10005489;28;20081;-76
2023/12/15 17:47:48;;;;;;;19.00;14.80;;;;;;;;;;10008930;28;20140;-75
2023/12/15 17:52:43;;;;;;;29.95;22.00;;;;;;;;;;10005830;28;20469;-75
2023/12/15 17:57:35;;;;;;;50.28;33.40;;;;;;;;;;10006308;28;20042;-75
2023/12/15 18:02:28;;;;;;;21.67;16.60;;;;;;;;;;10007942;28;20046;-75
2023/12/15 18:07:21;;;;;;;31.88;21.75;;;;;;;;;;10008949;28;20046;-78
2023/12/15 18:12:13;;;;;;;20.38;17.05;;;;;;;;;;9997598;28;20038;-79
2023/12/15 18:17:05;;;;;;;17.75;13.73;;;;;;;;;;10002343;28;20045;-79
2023/12/15 18:21:57;;;;;;;15.43;13.20;;;;;;;;;;10000582;28;20042;-79
2023/12/15 18:26:49;;;;;;;15.23;13.65;;;;;;;;;;10009958;28;20058;-78
2023/12/15 18:31:41;;;;;;;17.13;13.85;;;;;;;;;;10006648;28;20053;-78
2023/12/15 18:36:33;;;;;;;46.35;31.65;;;;;;;;;;10003890;28;20496;-78
2023/12/15 18:41:26;;;;;;;25.05;17.90;;;;;;;;;;9993477;28;20047;-79
2023/12/15 18:46:19;;;;;;;58.33;41.03;;;;;;;;;;9993622;28;20486;-79
2023/12/15 18:51:22;;;;;;;28.98;22.25;;;;;;;;;;10009536;28;20046;-77
2023/12/15 18:56:17;;;;;;;13.52;12.13;;;;;;;;;;9991270;28;20478;-78
2023/12/15 19:01:10;;;;;;;18.27;13.27;;;;;;;;;;9986683;28;20714;-74
2023/12/15 19:06:03;;;;;;;12.32;9.88;;;;;;;;;;9986976;28;20045;-79
2023/12/15 19:10:55;;;;;;;12.82;10.20;;;;;;;;;;9991694;28;20065;-82
2023/12/15 19:15:49;;;;;;;18.05;13.43;;;;;;;;;;9991448;28;20092;-82
2023/12/15 19:20:41;;;;;;;13.48;11.32;;;;;;;;;;10001308;28;20046;-80
2023/12/15 19:25:33;;;;;;;14.18;10.88;;;;;;;;;;10002936;28;20040;-82
2023/12/15 19:30:25;;;;;;;13.43;10.32;;;;;;;;;;9999063;28;20046;-76
2023/12/15 19:35:17;;;;;;;30.98;23.58;;;;;;;;;;9990060;28;20058;-78
2023/12/15 19:40:09;;;;;;;32.13;21.33;;;;;;;;;;9999352;28;20047;-79
2023/12/15 19:45:03;;;;;;;36.63;24.95;;;;;;;;;;10000646;28;20077;-79
2023/12/15 19:49:55;;;;;;;23.63;17.38;;;;;;;;;;9990770;28;20049;-77
2023/12/15 19:54:47;;;;;;;15.02;13.13;;;;;;;;;;10005954;28;20062;-78
2023/12/15 19:59:39;;;;;;;15.65;12.80;;;;;;;;;;9989520;28;20054;-79
2023/12/15 20:04:32;;;;;;;16.63;13.50;;;;;;;;;;9994818;28;20070;-77
2023/12/15 20:09:26;;;;;;;17.92;14.73;;;;;;;;;;9994169;28;20048;-78
2023/12/15 20:14:18;;;;;;;17.27;14.07;;;;;;;;;;10000862;28;20088;-79
2023/12/15 20:19:10;;;;;;;19.08;15.57;;;;;;;;;;9996181;28;20457;-79
2023/12/15 20:24:03;;;;;;;21.40;14.75;;;;;;;;;;10005372;28;20092;-80
2023/12/15 20:28:56;;;;;;;15.27;12.88;;;;;;;;;;9999730;28;20058;-80
2023/12/15 20:33:48;;;;;;;17.33;14.45;;;;;;;;;;10007208;28;20116;-80
2023/12/15 20:38:40;;;;;;;19.52;15.93;;;;;;;;;;10000509;28;20050;-80
2023/12/15 20:43:32;;;;;;;18.85;14.35;;;;;;;;;;10003799;28;20046;-82
2023/12/15 20:48:24;;;;;;;16.65;12.88;;;;;;;;;;9997957;28;20104;-80
2023/12/15 20:53:16;;;;;;;16.13;14.02;;;;;;;;;;10008677;28;20056;-81
2023/12/15 20:58:07;;;;;;;15.70;11.98;;;;;;;;;;9994985;28;20168;-80
2023/12/15 21:03:00;;;;;;;16.20;11.57;;;;;;;;;;10001624;28;20425;-80
2023/12/15 21:07:52;;;;;;;16.05;11.88;;;;;;;;;;9997800;28;20392;-80
2023/12/15 21:12:44;;;;;;;14.07;11.57;;;;;;;;;;10001204;28;20046;-80
2023/12/15 21:17:36;;;;;;;14.32;11.75;;;;;;;;;;10018065;28;20050;-81
2023/12/15 21:22:30;;;;;;;16.48;12.48;;;;;;;;;;10000470;28;20136;-81
2023/12/15 21:27:22;;;;;;;17.42;14.00;;;;;;;;;;10013640;28;20047;-81
2023/12/15 21:32:16;;;;;;;17.20;14.90;;;;;;;;;;10017586;28;20074;-79
2023/12/15 21:37:08;;;;;;;19.95;13.95;;;;;;;;;;10023024;28;20099;-81
2023/12/15 21:42:00;;;;;;;19.13;16.25;;;;;;;;;;10015753;28;20048;-80
2023/12/15 21:46:52;;;;;;;19.00;15.07;;;;;;;;;;10009810;28;20058;-80
2023/12/15 21:51:44;;;;;;;24.35;18.80;;;;;;;;;;10010934;28;20053;-81
2023/12/15 21:56:36;;;;;;;32.95;17.27;;;;;;;;;;10009939;28;20053;-81
2023/12/15 22:01:28;;;;;;;25.77;17.55;;;;;;;;;;10002822;28;20154;-81
2023/12/15 22:06:24;;;;;;;23.58;18.80;;;;;;;;;;9999883;28;20101;-80
2023/12/15 22:11:16;;;;;;;21.85;18.33;;;;;;;;;;9993372;28;20046;-81
2023/12/15 22:16:09;;;;;;;23.52;17.60;;;;;;;;;;9995045;28;20097;-80
2023/12/15 22:21:01;;;;;;;24.05;18.02;;;;;;;;;;10015181;28;20034;-81
2023/12/15 22:25:54;;;;;;;17.83;14.30;;;;;;;;;;9991674;28;20050;-81
2023/12/15 22:30:49;;;;;;;16.77;13.18;;;;;;;;;;9991386;28;20046;-80
2023/12/15 22:35:41;;;;;;;21.50;15.80;;;;;;;;;;10002455;28;20068;-81
2023/12/15 22:40:33;;;;;;;19.15;13.77;;;;;;;;;;9992014;28;20117;-79
2023/12/15 22:45:25;;;;;;;15.40;13.32;;;;;;;;;;9995436;28;20382;-80
2023/12/15 22:50:18;;;;;;;20.95;16.83;;;;;;;;;;9988730;28;20421;-79
2023/12/15 22:55:10;;;;;;;19.20;15.98;;;;;;;;;;9998321;28;20038;-80
2023/12/15 23:00:02;;;;;;;20.77;17.15;;;;;;;;;;9986824;28;20156;-80
2023/12/15 23:04:54;;;;;;;19.27;15.35;;;;;;;;;;9998375;28;20041;-80
2023/12/15 23:09:46;;;;;;;19.50;14.85;;;;;;;;;;9986596;28;20068;-80
2023/12/15 23:14:38;;;;;;;19.63;16.52;;;;;;;;;;9988981;28;20100;-80
2023/12/15 23:19:32;;;;;;;20.45;15.60;;;;;;;;;;9988320;28;21199;-83
2023/12/15 23:24:25;;;;;;;18.35;15.35;;;;;;;;;;9988354;28;20039;-81
2023/12/15 23:29:17;;;;;;;18.90;15.95;;;;;;;;;;9989392;28;20141;-82
2023/12/15 23:34:10;;;;;;;29.45;19.63;;;;;;;;;;10001146;28;20470;-81
2023/12/15 23:39:03;;;;;;;30.55;23.35;;;;;;;;;;10003294;28;20046;-82
2023/12/15 23:43:55;;;;;;;31.15;21.10;;;;;;;;;;9988371;28;20136;-82
2023/12/15 23:48:47;;;;;;;35.88;24.42;;;;;;;;;;9988293;28;20046;-80
2023/12/15 23:53:39;;;;;;;31.33;23.88;;;;;;;;;;9987425;28;20049;-82
2023/12/15 23:58:32;;;;;;;22.85;19.33;;;;;;;;;;9987450;28;20042;-82
